Nord Traveller — 3FWJ2 — position and weather

sailwx.info

Track history (hours):
 
Tides and Currents Weather Stations Pressure Air Temp Water Temp Dewpoint Dewpoint Depression Visibility Wind Speed Wind Dir Waves Ship Positions

Nord Traveller

Last reported at 2017-Oct-10 13:50 UTC. Time now 2017-Oct-20 03:09 UTC.
Position N 27°42' W 124°17'.
Warning: this ship's position is 9 days out of date.

Length 190 m; draft 12 m.

Type: Cargo ship. MMSI: 370733000.

Date/timePositionNaut miles runAvg speedWind from/ knotsBaromVisibWave heightAir tempDewpointWater temp
2017-Oct-10 13:50N 27°42' W 124°17'1311.7
2017-Oct-10 12:43N 27°36' W 124°04'711.6
2017-Oct-10 12:05N 27°32' W 123°57'2311.7
2017-Oct-10 10:09N 27°21' W 123°35'411.5
2017-Oct-10 09:47N 27°19' W 123°31'411.7
2017-Oct-10 09:29N 27°18' W 123°27'811.8
2017-Oct-10 08:48N 27°14' W 123°19'712.0
2017-Oct-10 08:14N 27°11' W 123°12'311.8
2017-Oct-10 08:00N 27°09' W 123°10'712.2
2017-Oct-10 07:26N 27°06' W 123°03'512.1
2017-Oct-10 07:00N 27°03' W 122°58'611.9
2017-Oct-10 06:31N 27°00' W 122°52'612.2
2017-Oct-10 06:01N 26°57' W 122°46'612.0
2017-Oct-10 05:31N 26°55' W 122°40'612.2
2017-Oct-10 05:00N 26°52' W 122°34'612.1
2017-Oct-10 04:30N 26°49' W 122°28'611.7
2017-Oct-10 04:00N 26°46' W 122°22'611.7
2017-Oct-10 03:28N 26°43' W 122°16'611.8
2017-Oct-10 02:56N 26°40' W 122°10'611.8
2017-Oct-10 02:26N 26°37' W 122°04'511.8
2017-Oct-10 02:00N 26°35' W 121°59'611.7
2017-Oct-10 01:28N 26°32' W 121°53'611.7
2017-Oct-10 00:59N 26°29' W 121°48'611.7
2017-Oct-10 00:29N 26°26' W 121°42'611.7
2017-Oct-09 23:59N 26°23' W 121°36'611.9
2017-Oct-09 23:30N 26°21' W 121°31'612.2
2017-Oct-09 23:00N 26°18' W 121°25'612.0
2017-Oct-09 22:31N 26°15' W 121°19'2912.0
2017-Oct-09 20:07N 26°01' W 120°51'112.2
2017-Oct-09 20:00N 26°01' W 120°49'612.2
2017-Oct-09 19:31N 25°58' W 120°43'912.2
2017-Oct-09 18:48N 25°53' W 120°35'912.3
2017-Oct-09 18:03N 25°49' W 120°26'012.6
2017-Oct-09 18:01N 25°49' W 120°25'812.5
2017-Oct-09 17:23N 25°45' W 120°18'16212.9
2017-Oct-09 04:48N 24°27' W 117°41'1813.4
2017-Oct-09 03:28N 24°19' W 117°23'1613.3
2017-Oct-09 02:16N 24°11' W 117°08'2113.2
2017-Oct-09 00:40N 24°01' W 116°48'213.0
2017-Oct-09 00:30N 23°60' W 116°46'813.4
2017-Oct-08 23:56N 23°56' W 116°38'1313.4
2017-Oct-08 22:59N 23°50' W 116°26'613.3
2017-Oct-08 22:30N 23°47' W 116°20'2013.3
2017-Oct-08 20:59N 23°38' W 116°01'613.3
2017-Oct-08 20:30N 23°35' W 115°55'1813.3
2017-Oct-08 19:10N 23°26' W 115°38'713.3
2017-Oct-08 18:37N 23°23' W 115°30'112.8
2017-Oct-08 18:31N 23°22' W 115°29'1013.2
2017-Oct-08 17:45N 23°17' W 115°20'412.9
2017-Oct-08 17:26N 23°15' W 115°16'512.8
2017-Oct-08 17:00N 23°12' W 115°11'612.8
2017-Oct-08 16:30N 23°10' W 115°04'1212.9
2017-Oct-08 15:35N 23°04' W 114°53'813.2
2017-Oct-08 14:59N 23°00' W 114°45'1913.4
2017-Oct-08 13:34N 22°51' W 114°27'613.4
2017-Oct-08 13:06N 22°48' W 114°21'313.4
2017-Oct-08 12:51N 22°46' W 114°18'513.4
2017-Oct-08 12:29N 22°44' W 114°14'1013.4
2017-Oct-08 11:46N 22°39' W 114°04'3513.4
2017-Oct-08 09:10N 22°23' W 113°31'1013.4
2017-Oct-08 08:26N 22°18' W 113°22'613.5
2017-Oct-08 08:00N 22°15' W 113°16'1413.3
2017-Oct-08 06:55N 22°08' W 113°03'  
Track history (hours):
 
Tides and Currents Weather Stations Pressure Air Temp Water Temp Dewpoint Dewpoint Depression Visibility Wind Speed Wind Dir Waves Ship Positions

Nord Traveller

Last reported at 2017-Oct-10 13:50 UTC. Time now 2017-Oct-20 03:09 UTC.
Position N 27°42' W 124°17'.
Warning: this ship's position is 9 days out of date.

Length 190 m; draft 12 m.

Type: Cargo ship. MMSI: 370733000.

Date/timePositionNaut miles runAvg speedWind from/ knotsBaromVisibWave heightAir tempDewpointWater temp
2017-Oct-10 13:50N 27°42' W 124°17'1311.7
2017-Oct-10 12:43N 27°36' W 124°04'711.6
2017-Oct-10 12:05N 27°32' W 123°57'2311.7
2017-Oct-10 10:09N 27°21' W 123°35'411.5
2017-Oct-10 09:47N 27°19' W 123°31'411.7
2017-Oct-10 09:29N 27°18' W 123°27'811.8
2017-Oct-10 08:48N 27°14' W 123°19'712.0
2017-Oct-10 08:14N 27°11' W 123°12'311.8
2017-Oct-10 08:00N 27°09' W 123°10'712.2
2017-Oct-10 07:26N 27°06' W 123°03'512.1
2017-Oct-10 07:00N 27°03' W 122°58'611.9
2017-Oct-10 06:31N 27°00' W 122°52'612.2
2017-Oct-10 06:01N 26°57' W 122°46'612.0
2017-Oct-10 05:31N 26°55' W 122°40'612.2
2017-Oct-10 05:00N 26°52' W 122°34'612.1
2017-Oct-10 04:30N 26°49' W 122°28'611.7
2017-Oct-10 04:00N 26°46' W 122°22'611.7
2017-Oct-10 03:28N 26°43' W 122°16'611.8
2017-Oct-10 02:56N 26°40' W 122°10'611.8
2017-Oct-10 02:26N 26°37' W 122°04'511.8
2017-Oct-10 02:00N 26°35' W 121°59'611.7
2017-Oct-10 01:28N 26°32' W 121°53'611.7
2017-Oct-10 00:59N 26°29' W 121°48'611.7
2017-Oct-10 00:29N 26°26' W 121°42'611.7
2017-Oct-09 23:59N 26°23' W 121°36'611.9
2017-Oct-09 23:30N 26°21' W 121°31'612.2
2017-Oct-09 23:00N 26°18' W 121°25'612.0
2017-Oct-09 22:31N 26°15' W 121°19'2912.0
2017-Oct-09 20:07N 26°01' W 120°51'112.2
2017-Oct-09 20:00N 26°01' W 120°49'612.2
2017-Oct-09 19:31N 25°58' W 120°43'912.2
2017-Oct-09 18:48N 25°53' W 120°35'912.3
2017-Oct-09 18:03N 25°49' W 120°26'012.6
2017-Oct-09 18:01N 25°49' W 120°25'812.5
2017-Oct-09 17:23N 25°45' W 120°18'16212.9
2017-Oct-09 04:48N 24°27' W 117°41'1813.4
2017-Oct-09 03:28N 24°19' W 117°23'1613.3
2017-Oct-09 02:16N 24°11' W 117°08'2113.2
2017-Oct-09 00:40N 24°01' W 116°48'213.0
2017-Oct-09 00:30N 23°60' W 116°46'813.4
2017-Oct-08 23:56N 23°56' W 116°38'1313.4
2017-Oct-08 22:59N 23°50' W 116°26'613.3
2017-Oct-08 22:30N 23°47' W 116°20'2013.3
2017-Oct-08 20:59N 23°38' W 116°01'613.3
2017-Oct-08 20:30N 23°35' W 115°55'1813.3
2017-Oct-08 19:10N 23°26' W 115°38'713.3
2017-Oct-08 18:37N 23°23' W 115°30'112.8
2017-Oct-08 18:31N 23°22' W 115°29'1013.2
2017-Oct-08 17:45N 23°17' W 115°20'412.9
2017-Oct-08 17:26N 23°15' W 115°16'512.8
2017-Oct-08 17:00N 23°12' W 115°11'612.8
2017-Oct-08 16:30N 23°10' W 115°04'1212.9
2017-Oct-08 15:35N 23°04' W 114°53'813.2
2017-Oct-08 14:59N 23°00' W 114°45'1913.4
2017-Oct-08 13:34N 22°51' W 114°27'613.4
2017-Oct-08 13:06N 22°48' W 114°21'313.4
2017-Oct-08 12:51N 22°46' W 114°18'513.4
2017-Oct-08 12:29N 22°44' W 114°14'1013.4
2017-Oct-08 11:46N 22°39' W 114°04'3513.4
2017-Oct-08 09:10N 22°23' W 113°31'1013.4
2017-Oct-08 08:26N 22°18' W 113°22'613.5
2017-Oct-08 08:00N 22°15' W 113°16'1413.3
2017-Oct-08 06:55N 22°08' W 113°03'  

Dump ship's entire track history